Cleveland, Ohio
Traffic Map
Current Weather Conditions
Cleveland, Ohio
Overcast Haze
Overcast

Feels Like: -1°
Wind Chill: -1° Ceiling: 3000
Heat Index: Visibility: 4mi
Dew Point: -1° Wind: 5mph
Humidity: 89% Direction: 150° (SSE)
Pressure: 30.02in Gusts: 0mph
Raw Report DataKBKL 270819Z 15004KT 4SM BR OVC030 01/M01 A3002 RMK AO2 T00111006
Traffic Incident Summary
Active as of:
Severity:
Category:
InformationThere was an issue retrieving the traffic information for this location. Please try a different location or try again shortly.
Advertisements
Track Severe Weather on mobile